Time;durP1;ratioP1;P1;durP2;ratioP2;P2;SDS_P1;SDS_P2;PMS_P1;PMS_P2;Temp;Humidity;BMP_temperature;BMP_pressure;BME280_temperature;BME280_humidity;BME280_pressure;Samples;Min_cycle;Max_cycle;Signal;HPM_P1;HPM_P2
2023/10/25 00:00:14;;;;;;;10.98;5.70;;;20.60;69.70;;;;;;5110353;28;20077;-56
2023/10/25 00:02:40;;;;;;;8.77;5.05;;;20.60;70.10;;;;;;5109794;28;20114;-58
2023/10/25 00:05:06;;;;;;;8.65;5.55;;;20.50;69.60;;;;;;5110619;28;20031;-55
2023/10/25 00:07:32;;;;;;;9.07;5.35;;;20.60;69.70;;;;;;5109672;28;20499;-56
2023/10/25 00:10:00;;;;;;;8.93;5.10;;;20.50;69.60;;;;;;5110551;28;20034;-57
2023/10/25 00:12:26;;;;;;;9.45;5.50;;;20.60;69.60;;;;;;5109578;28;20506;-57
2023/10/25 00:14:53;;;;;;;13.18;5.28;;;20.50;69.90;;;;;;5109888;28;20047;-55
2023/10/25 00:17:18;;;;;;;9.82;5.25;;;20.50;69.80;;;;;;5110481;28;20031;-55
2023/10/25 00:19:44;;;;;;;9.32;5.30;;;20.60;69.70;;;;;;5109751;28;20034;-58
2023/10/25 00:22:10;;;;;;;8.43;5.20;;;20.50;69.60;;;;;;5109508;28;20467;-57
2023/10/25 00:24:36;;;;;;;7.47;5.47;;;20.50;69.60;;;;;;5109410;28;20538;-57
2023/10/25 00:27:01;;;;;;;12.05;5.50;;;20.60;69.60;;;;;;5110217;28;20493;-56
2023/10/25 00:29:27;;;;;;;10.55;5.38;;;20.60;69.60;;;;;;5110396;28;20042;-55
2023/10/25 00:31:53;;;;;;;9.02;5.00;;;20.50;69.70;;;;;;5091813;28;20016;-57
2023/10/25 00:34:18;;;;;;;6.88;4.80;;;20.60;69.70;;;;;;5109846;28;20027;-56
2023/10/25 00:36:44;;;;;;;8.20;4.68;;;20.50;69.80;;;;;;5110718;28;20031;-58
2023/10/25 00:39:10;;;;;;;9.32;4.65;;;20.50;69.80;;;;;;5110604;28;20430;-56
2023/10/25 00:41:36;;;;;;;9.20;5.47;;;20.50;69.80;;;;;;5109393;28;20497;-55
2023/10/25 00:44:01;;;;;;;8.70;5.30;;;20.50;69.80;;;;;;5092033;28;20055;-53
2023/10/25 00:46:29;;;;;;;9.10;5.18;;;20.50;69.90;;;;;;5092176;28;20027;-57
2023/10/25 00:48:58;;;;;;;8.35;4.45;;;20.50;70.10;;;;;;5109867;28;20753;-57
2023/10/25 00:51:26;;;;;;;7.20;4.35;;;20.50;70.00;;;;;;5091982;28;20027;-54
2023/10/25 00:53:54;;;;;;;8.18;4.70;;;20.50;70.20;;;;;;5109271;28;20548;-54
2023/10/25 00:56:29;;;;;;;7.07;4.60;;;20.50;70.00;;;;;;5110166;28;20016;-55
2023/10/25 00:58:57;;;;;;;7.85;4.85;;;20.50;70.80;;;;;;5109997;28;20506;-53
2023/10/25 01:01:25;;;;;;;6.60;4.15;;;20.50;70.20;;;;;;5109036;28;20080;-57
2023/10/25 01:03:51;;;;;;;6.57;4.28;;;20.40;69.80;;;;;;5106191;28;20020;-55
2023/10/25 01:06:17;;;;;;;6.90;4.43;;;20.50;69.90;;;;;;5109618;28;20047;-58
2023/10/25 01:08:44;;;;;;;8.48;4.75;;;20.50;70.30;;;;;;5110122;28;20015;-55
2023/10/25 01:11:11;;;;;;;7.20;4.35;;;20.40;70.20;;;;;;5091315;28;20039;-58
2023/10/25 01:13:37;;;;;;;6.15;4.13;;;20.40;70.20;;;;;;5109099;28;20032;-55
2023/10/25 01:16:04;;;;;;;8.27;4.65;;;20.50;70.30;;;;;;5091907;28;20102;-55
2023/10/25 01:18:30;;;;;;;6.95;4.43;;;20.50;70.40;;;;;;5091190;28;20024;-54
2023/10/25 01:20:55;;;;;;;8.70;4.32;;;20.40;70.30;;;;;;5109274;28;20495;-54
2023/10/25 01:23:21;;;;;;;6.40;4.18;;;20.40;70.10;;;;;;5109450;28;20027;-54
2023/10/25 01:25:47;;;;;;;6.60;4.15;;;20.50;70.00;;;;;;5109360;28;20110;-58
2023/10/25 01:28:13;;;;;;;10.10;4.40;;;20.50;70.30;;;;;;5109355;28;20043;-54
2023/10/25 01:30:40;;;;;;;8.07;4.32;;;20.40;69.90;;;;;;5109792;28;20035;-54
2023/10/25 01:33:07;;;;;;;6.70;4.10;;;20.50;70.80;;;;;;5108107;28;20108;-54
2023/10/25 01:35:34;;;;;;;14.73;4.38;;;20.50;69.50;;;;;;5108906;28;20027;-53
2023/10/25 01:38:01;;;;;;;15.77;5.10;;;20.50;69.80;;;;;;5110361;28;20092;-50
2023/10/25 01:40:26;;;;;;;10.48;3.95;;;20.50;69.90;;;;;;5112252;28;20027;-53
2023/10/25 01:42:54;;;;;;;13.13;3.78;;;20.50;70.10;;;;;;5111945;28;20027;-55
2023/10/25 01:45:24;;;;;;;10.90;4.30;;;20.40;69.70;;;;;;5093833;28;20028;-55
2023/10/25 01:47:50;;;;;;;16.08;4.20;;;20.50;69.80;;;;;;5111904;28;20517;-58
2023/10/25 01:50:18;;;;;;;8.35;4.13;;;20.50;69.80;;;;;;5112278;28;20448;-56
2023/10/25 01:52:44;;;;;;;9.70;4.35;;;20.50;69.60;;;;;;5111727;28;20497;-56
2023/10/25 01:55:09;;;;;;;8.68;4.35;;;20.50;69.60;;;;;;5093870;28;20107;-55
2023/10/25 01:57:35;;;;;;;7.38;3.95;;;20.40;70.10;;;;;;5093840;28;20024;-54
2023/10/25 02:00:03;;;;;;;7.85;3.78;;;20.40;69.80;;;;;;5093662;28;20097;-50
2023/10/25 02:02:38;;;;;;;9.68;4.18;;;20.40;69.60;;;;;;5111657;28;20032;-53
2023/10/25 02:05:04;;;;;;;12.43;4.18;;;20.40;69.70;;;;;;5093761;28;20503;-52
2023/10/25 02:07:31;;;;;;;9.05;4.25;;;20.40;69.80;;;;;;5111910;28;20030;-53
2023/10/25 02:09:56;;;;;;;10.27;4.28;;;20.40;69.50;;;;;;5093604;28;20024;-53
2023/10/25 02:12:23;;;;;;;9.30;3.95;;;20.40;69.90;;;;;;5093332;28;20024;-53
2023/10/25 02:14:48;;;;;;;10.77;4.25;;;20.40;69.70;;;;;;5093635;28;20403;-53
2023/10/25 02:17:14;;;;;;;6.32;4.00;;;20.40;69.40;;;;;;5111798;28;20035;-55
2023/10/25 02:19:40;;;;;;;7.78;4.13;;;20.40;69.40;;;;;;5111704;28;20471;-55
2023/10/25 02:22:07;;;;;;;8.02;4.30;;;20.40;69.60;;;;;;5111561;28;20028;-53
2023/10/25 02:24:32;;;;;;;8.23;4.18;;;20.40;69.60;;;;;;5111736;28;20387;-50
2023/10/25 02:26:59;;;;;;;7.05;4.10;;;20.40;69.70;;;;;;5111704;28;20032;-53
2023/10/25 02:29:25;;;;;;;6.53;3.78;;;20.40;69.40;;;;;;5111360;28;20035;-56
2023/10/25 02:31:51;;;;;;;9.20;4.00;;;20.40;69.30;;;;;;5111329;28;20031;-54
2023/10/25 02:34:17;;;;;;;11.90;4.50;;;20.40;69.40;;;;;;5093584;28;20521;-55
2023/10/25 02:36:43;;;;;;;10.30;4.45;;;20.40;69.50;;;;;;5111350;28;20557;-53
2023/10/25 02:39:10;;;;;;;8.88;4.55;;;20.40;69.30;;;;;;5111187;28;20023;-52
2023/10/25 02:41:37;;;;;;;7.65;4.28;;;20.40;69.40;;;;;;5111309;28;20032;-52
2023/10/25 02:44:03;;;;;;;8.05;4.63;;;20.40;69.30;;;;;;5111420;28;20034;-52
2023/10/25 02:46:29;;;;;;;5.93;3.92;;;20.40;69.50;;;;;;5112540;28;20035;-56
2023/10/25 02:48:55;;;;;;;8.18;4.40;;;20.40;69.20;;;;;;5115374;28;20031;-58
2023/10/25 02:51:20;;;;;;;10.10;4.55;;;20.40;69.20;;;;;;5115128;28;20027;-54
2023/10/25 02:53:46;;;;;;;11.93;3.88;;;20.40;69.40;;;;;;5115385;22;20130;-60
2023/10/25 02:56:12;;;;;;;7.93;4.60;;;20.40;69.40;;;;;;5093277;28;20020;-59
2023/10/25 02:58:39;;;;;;;10.70;5.15;;;20.40;69.30;;;;;;5093668;28;20055;-60
2023/10/25 03:01:05;;;;;;;8.25;4.22;;;20.40;69.30;;;;;;5094464;28;20416;-60
2023/10/25 03:03:33;;;;;;;6.55;4.00;;;20.40;69.30;;;;;;5093453;28;20450;-59
2023/10/25 03:05:59;;;;;;;7.10;4.40;;;20.40;69.20;;;;;;5094576;28;20027;-59
2023/10/25 03:08:27;;;;;;;6.82;4.50;;;20.40;69.20;;;;;;5094273;28;20024;-60
2023/10/25 03:10:53;;;;;;;10.35;4.40;;;20.40;70.00;;;;;;5094584;28;20244;-59
2023/10/25 03:13:19;;;;;;;8.85;4.45;;;20.40;69.10;;;;;;5094107;28;20039;-60
2023/10/25 03:15:45;;;;;;;11.35;4.70;;;20.50;69.30;;;;;;5094530;28;20446;-60
2023/10/25 03:18:11;;;;;;;6.60;4.15;;;20.40;69.30;;;;;;5094340;28;20028;-58
2023/10/25 03:20:37;;;;;;;6.03;3.85;;;20.40;69.40;;;;;;5093104;28;20107;-59
2023/10/25 03:23:03;;;;;;;8.43;4.35;;;20.40;69.40;;;;;;5092835;28;20047;-59
2023/10/25 03:25:28;;;;;;;9.55;4.50;;;20.40;69.30;;;;;;5092969;28;20036;-59
2023/10/25 03:27:54;;;;;;;18.67;4.70;;;20.40;70.10;;;;;;5092970;28;20105;-60
2023/10/25 03:30:20;;;;;;;7.07;4.18;;;20.40;69.40;;;;;;5094119;28;20027;-59
2023/10/25 03:32:46;;;;;;;6.15;3.90;;;20.40;69.50;;;;;;5093712;28;20031;-56
2023/10/25 03:35:12;;;;;;;11.75;4.55;;;20.40;69.40;;;;;;5094247;28;20426;-59
2023/10/25 03:37:41;;;;;;;8.80;4.13;;;20.30;69.90;;;;;;5093987;28;20028;-61
2023/10/25 03:40:11;;;;;;;;;;;20.40;69.90;;;;;;5093238;28;20115;-61
2023/10/25 03:42:37;;;;;;;6.33;4.40;;;20.40;69.60;;;;;;5093753;28;19922;-60
2023/10/25 03:45:06;;;;;;;7.55;4.10;;;20.40;69.80;;;;;;5093882;28;20032;-60
2023/10/25 03:47:37;;;;;;;7.68;4.40;;;20.40;69.40;;;;;;5092718;28;20081;-61
2023/10/25 03:50:04;;;;;;;8.75;4.45;;;20.40;69.60;;;;;;5093865;28;20093;-59
2023/10/25 03:52:30;;;;;;;9.38;4.57;;;20.40;69.20;;;;;;5093616;28;20028;-59
2023/10/25 03:54:56;;;;;;;10.85;4.63;;;20.40;69.60;;;;;;5092329;28;20114;-61
2023/10/25 03:57:22;;;;;;;7.70;4.45;;;20.30;69.30;;;;;;5092504;28;20515;-58
2023/10/25 03:59:48;;;;;;;9.32;4.80;;;20.30;69.20;;;;;;5093110;28;20027;-59
2023/10/25 04:02:14;;;;;;;9.18;4.43;;;20.40;69.50;;;;;;5093230;28;20387;-60
2023/10/25 04:04:40;;;;;;;7.55;4.47;;;20.40;69.80;;;;;;5093430;28;20586;-61
2023/10/25 04:07:05;;;;;;;7.78;4.28;;;20.30;69.50;;;;;;5093456;28;20024;-60
2023/10/25 04:09:31;;;;;;;9.77;4.50;;;20.30;69.40;;;;;;5093425;28;20111;-60
2023/10/25 04:11:57;;;;;;;8.57;4.63;;;20.40;69.40;;;;;;5093020;28;20090;-59
2023/10/25 04:14:23;;;;;;;8.27;4.85;;;20.30;69.80;;;;;;5093161;28;20024;-59
2023/10/25 04:16:49;;;;;;;7.40;4.40;;;20.30;69.20;;;;;;5093207;28;20056;-59
2023/10/25 04:19:15;;;;;;;9.70;4.70;;;20.30;69.70;;;;;;5093326;28;20487;-60
2023/10/25 04:21:41;;;;;;;14.68;4.25;;;20.30;69.70;;;;;;5092812;28;20088;-60
2023/10/25 04:24:07;;;;;;;10.57;4.13;;;20.30;69.70;;;;;;5092999;28;20028;-60
2023/10/25 04:26:33;;;;;;;6.65;4.32;;;20.30;69.50;;;;;;5093025;28;20036;-59
2023/10/25 04:28:58;;;;;;;6.82;4.63;;;20.30;69.20;;;;;;5093423;28;20039;-61
2023/10/25 04:31:25;;;;;;;9.07;4.10;;;20.30;69.20;;;;;;5092613;28;20069;-60
2023/10/25 04:33:51;;;;;;;8.30;4.53;;;20.30;69.90;;;;;;5092758;28;20157;-59
2023/10/25 04:36:17;;;;;;;6.68;4.13;;;20.30;69.80;;;;;;5092913;28;20110;-59
2023/10/25 04:38:43;;;;;;;7.57;4.18;;;20.30;70.10;;;;;;5093052;28;20024;-56
2023/10/25 04:41:09;;;;;;;6.97;4.43;;;20.30;69.30;;;;;;5092710;28;20454;-59
2023/10/25 04:43:35;;;;;;;8.73;4.25;;;20.30;69.40;;;;;;5092628;28;20028;-59
2023/10/25 04:46:03;;;;;;;10.93;4.60;;;20.30;69.50;;;;;;5092694;28;20024;-59
2023/10/25 04:48:29;;;;;;;9.20;4.50;;;20.30;69.40;;;;;;5092594;28;20449;-59
2023/10/25 04:50:55;;;;;;;9.32;4.75;;;20.30;70.00;;;;;;5092674;28;20476;-58
2023/10/25 04:53:20;;;;;;;7.82;4.82;;;20.30;69.70;;;;;;5092116;28;20035;-60
2023/10/25 04:55:47;;;;;;;7.63;4.35;;;20.30;69.20;;;;;;5092515;28;20024;-60
2023/10/25 04:58:13;;;;;;;8.52;4.43;;;20.30;69.90;;;;;;5092546;28;20107;-57
2023/10/25 05:00:39;;;;;;;7.72;4.47;;;20.30;70.00;;;;;;5092895;28;20035;-52
2023/10/25 05:03:10;;;;;;;8.70;4.68;;;20.30;69.60;;;;;;5092923;28;20411;-57
2023/10/25 05:05:40;;;;;;;8.57;4.75;;;20.30;69.50;;;;;;5092998;28;20082;-51
2023/10/25 05:08:07;;;;;;;8.75;4.95;;;20.30;69.40;;;;;;5092519;28;20024;-54
2023/10/25 05:10:33;;;;;;;8.40;4.72;;;20.30;69.40;;;;;;5091502;28;20114;-56
2023/10/25 05:12:59;;;;;;;7.45;4.60;;;20.30;69.20;;;;;;5091905;28;20060;-53
2023/10/25 05:15:27;;;;;;;9.45;4.60;;;20.30;70.10;;;;;;5092301;28;20024;-56
2023/10/25 05:17:53;;;;;;;9.27;4.53;;;20.30;69.70;;;;;;5092154;28;20027;-55
2023/10/25 05:20:19;;;;;;;9.07;5.10;;;20.30;69.40;;;;;;5092259;28;20086;-56
2023/10/25 05:22:51;;;;;;;8.90;4.25;;;20.30;70.40;;;;;;5091876;28;20107;-58
2023/10/25 05:25:17;;;;;;;10.02;4.50;;;20.30;69.20;;;;;;5091923;28;20048;-55
2023/10/25 05:27:43;;;;;;;9.57;4.50;;;20.30;70.00;;;;;;5092474;28;20024;-56
2023/10/25 05:30:12;;;;;;;8.23;4.38;;;20.30;69.40;;;;;;5091848;28;20391;-52
2023/10/25 05:32:43;;;;;;;7.35;4.43;;;20.30;69.90;;;;;;5090345;28;20487;-57
2023/10/25 05:35:09;;;;;;;9.18;4.28;;;20.30;69.20;;;;;;5091882;28;20028;-59
2023/10/25 05:37:36;;;;;;;7.65;4.45;;;20.30;69.30;;;;;;5091857;28;20031;-59
2023/10/25 05:40:04;;;;;;;7.75;4.55;;;20.30;69.40;;;;;;5091808;28;20024;-56
2023/10/25 05:42:35;;;;;;;12.73;4.70;;;20.30;69.10;;;;;;5091550;28;20047;-57
2023/10/25 05:45:01;;;;;;;10.60;4.38;;;20.30;70.00;;;;;;5090783;28;20563;-59
2023/10/25 05:47:27;;;;;;;14.05;4.97;;;20.30;69.30;;;;;;5091749;28;20080;-56
2023/10/25 05:49:53;;;;;;;7.68;4.40;;;20.30;69.70;;;;;;5091616;28;20024;-58
2023/10/25 05:52:20;;;;;;;9.07;4.43;;;20.30;69.90;;;;;;5091219;28;20422;-58
2023/10/25 05:54:46;;;;;;;7.72;4.70;;;20.30;70.90;;;;;;5091450;28;20028;-57
2023/10/25 05:57:13;;;;;;;8.65;4.53;;;20.30;69.90;;;;;;5091635;28;20052;-58
2023/10/25 05:59:42;;;;;;;8.52;4.78;;;20.30;69.10;;;;;;5091601;28;20028;-56
2023/10/25 06:02:14;;;;;;;7.93;4.60;;;20.30;69.70;;;;;;5091268;28;20037;-55
2023/10/25 06:04:41;;;;;;;10.80;4.78;;;20.30;69.00;;;;;;5089898;28;20052;-59
2023/10/25 06:07:13;;;;;;;8.30;4.20;;;20.30;69.50;;;;;;5091517;28;20032;-54
2023/10/25 06:09:39;;;;;;;7.28;4.65;;;20.30;69.20;;;;;;5091621;28;20059;-56
2023/10/25 06:12:06;;;;;;;8.32;4.60;;;20.30;68.80;;;;;;5091243;28;20066;-55
2023/10/25 06:14:32;;;;;;;10.90;4.53;;;20.30;68.60;;;;;;5091806;28;20416;-59
2023/10/25 06:16:59;;;;;;;13.77;4.80;;;20.30;68.70;;;;;;5091265;28;20101;-52
2023/10/25 06:19:28;;;;;;;15.57;4.20;;;20.40;68.80;;;;;;5091544;28;20059;-60
2023/10/25 06:21:55;;;;;;;11.65;4.72;;;20.40;69.20;;;;;;5091796;28;20024;-58
2023/10/25 06:24:21;;;;;;;15.10;4.88;;;20.40;69.80;;;;;;5095469;28;20024;-56
2023/10/25 06:26:46;;;;;;;17.92;4.40;;;20.40;69.20;;;;;;5095481;28;20027;-56
2023/10/25 06:29:12;;;;;;;14.75;4.68;;;20.50;70.30;;;;;;5095263;28;20511;-58
2023/10/25 06:31:38;;;;;;;16.55;5.30;;;20.50;70.80;;;;;;5094855;28;20045;-58
2023/10/25 06:34:04;;;;;;;11.55;5.00;;;20.60;70.70;;;;;;5094975;28;20080;-58
2023/10/25 06:36:33;;;;;;;16.73;5.00;;;20.60;71.70;;;;;;5095085;28;20107;-58
2023/10/25 06:39:04;;;;;;;18.20;6.95;;;20.60;70.80;;;;;;5095039;28;20052;-58
2023/10/25 06:41:31;;;;;;;26.35;9.38;;;20.60;70.90;;;;;;5094777;28;20035;-53
2023/10/25 06:44:03;;;;;;;22.77;10.55;;;20.40;67.00;;;;;;5093809;28;20069;-59
2023/10/25 06:46:29;;;;;;;19.05;10.02;;;20.30;65.50;;;;;;5094990;28;20162;-56
2023/10/25 06:48:56;;;;;;;18.48;11.25;;;20.10;64.30;;;;;;5094881;28;20506;-57
2023/10/25 06:51:22;;;;;;;19.92;11.57;;;20.10;64.60;;;;;;5094390;28;20036;-54
2023/10/25 17:42:15;;;;;;;14.32;5.75;;;20.20;66.30;;;;;;5180313;27;20384;-48
2023/10/25 17:44:42;;;;;;;18.75;5.90;;;20.40;67.80;;;;;;5170934;27;20031;-47
2023/10/25 17:47:08;;;;;;;14.40;5.72;;;20.40;67.90;;;;;;5171443;27;20046;-46
2023/10/25 17:49:34;;;;;;;15.70;5.68;;;20.40;67.20;;;;;;5171102;27;20053;-46
2023/10/25 17:52:01;;;;;;;11.90;5.60;;;20.40;67.20;;;;;;5171221;27;20071;-47
2023/10/25 17:54:27;;;;;;;14.75;5.85;;;20.40;67.50;;;;;;5171006;27;20431;-52
2023/10/25 17:56:52;;;;;;;15.55;6.32;;;20.40;68.60;;;;;;5170794;27;20075;-46
2023/10/25 17:59:18;;;;;;;12.07;7.53;;;20.50;69.00;;;;;;5157261;27;20469;-45
2023/10/25 18:01:44;;;;;;;11.30;6.32;;;20.40;67.20;;;;;;5149695;27;20030;-45
2023/10/25 18:04:10;;;;;;;13.80;6.18;;;20.40;67.50;;;;;;5150030;27;20409;-45
2023/10/25 18:06:35;;;;;;;13.77;6.15;;;20.40;67.50;;;;;;5150135;27;20030;-45
2023/10/25 18:09:01;;;;;;;13.80;6.00;;;20.40;67.40;;;;;;5149981;27;20552;-46
2023/10/25 18:11:27;;;;;;;11.73;6.05;;;20.40;67.30;;;;;;5149396;27;20031;-46
2023/10/25 18:13:53;;;;;;;11.13;5.78;;;20.30;67.30;;;;;;5149816;27;20023;-46
2023/10/25 18:16:22;;;;;;;12.20;5.63;;;20.30;67.70;;;;;;5149720;27;20088;-45
2023/10/25 18:18:47;;;;;;;16.75;7.80;;;20.30;67.20;;;;;;5149746;27;20054;-49
2023/10/25 18:21:13;;;;;;;18.13;7.82;;;20.30;66.70;;;;;;5149234;27;20480;-46
2023/10/25 18:23:39;;;;;;;21.30;9.77;;;20.40;67.50;;;;;;5149638;27;20034;-53
2023/10/25 18:26:05;;;;;;;15.32;7.45;;;20.40;67.20;;;;;;5149713;27;20033;-46
2023/10/25 18:28:31;;;;;;;15.52;7.30;;;20.40;67.10;;;;;;5149366;27;20023;-50
2023/10/25 18:30:58;;;;;;;24.50;7.47;;;20.40;67.00;;;;;;5148660;27;20531;-46
2023/10/25 18:33:24;;;;;;;15.30;7.75;;;20.40;67.00;;;;;;5148965;27;20378;-46
2023/10/25 18:35:50;;;;;;;14.32;7.57;;;20.30;67.00;;;;;;5149381;27;20023;-49
2023/10/25 18:38:17;;;;;;;13.80;6.75;;;20.30;66.90;;;;;;5149357;27;20033;-48
2023/10/25 18:40:44;;;;;;;16.15;6.88;;;20.40;67.00;;;;;;5148859;27;20035;-46
2023/10/25 18:43:11;;;;;;;11.80;6.43;;;20.30;67.00;;;;;;5136088;27;20095;-47
2023/10/25 18:45:37;;;;;;;11.30;6.68;;;20.30;67.60;;;;;;5135430;27;20050;-46
2023/10/25 18:48:03;;;;;;;14.68;7.43;;;20.30;67.00;;;;;;5135357;27;20062;-49
2023/10/25 18:50:28;;;;;;;12.38;7.03;;;20.40;67.00;;;;;;5134918;27;20146;-46
2023/10/25 18:52:54;;;;;;;16.42;7.25;;;20.30;66.90;;;;;;5135210;27;20023;-49
2023/10/25 18:55:20;;;;;;;11.57;6.53;;;20.30;66.90;;;;;;5135398;27;20027;-46
2023/10/25 18:57:46;;;;;;;12.05;6.78;;;20.30;67.00;;;;;;5135305;27;20030;-53
2023/10/25 19:00:12;;;;;;;13.48;6.35;;;20.30;66.90;;;;;;5135110;27;20027;-47
2023/10/25 19:02:38;;;;;;;11.52;6.70;;;20.30;67.50;;;;;;5135277;27;20481;-47
2023/10/25 19:05:04;;;;;;;11.80;6.82;;;20.30;66.90;;;;;;5135164;27;20027;-46
2023/10/25 19:07:30;;;;;;;13.80;7.35;;;20.30;66.80;;;;;;5135164;27;20023;-53
2023/10/25 19:09:56;;;;;;;10.65;6.07;;;20.30;66.80;;;;;;5135067;27;20212;-52
2023/10/25 19:12:22;;;;;;;12.88;7.10;;;20.30;66.80;;;;;;5134806;27;20019;-48
2023/10/25 19:14:48;;;;;;;12.02;6.85;;;20.30;66.70;;;;;;5134855;27;20470;-52
2023/10/25 19:17:15;;;;;;;12.32;6.88;;;20.30;66.70;;;;;;5134966;27;20027;-52
2023/10/25 19:19:41;;;;;;;12.05;6.35;;;20.30;66.70;;;;;;5134859;27;20051;-46
2023/10/25 19:22:08;;;;;;;11.35;6.50;;;20.30;66.70;;;;;;5134411;27;20050;-51
2023/10/25 19:24:34;;;;;;;12.45;6.65;;;20.30;66.80;;;;;;5134749;27;20023;-46
2023/10/25 19:26:59;;;;;;;11.68;6.68;;;20.30;66.70;;;;;;5134841;27;20015;-49
2023/10/25 19:29:25;;;;;;;11.38;6.60;;;20.40;66.80;;;;;;5134626;27;20054;-50
2023/10/25 19:31:51;;;;;;;11.00;6.35;;;20.30;66.70;;;;;;5134088;27;20034;-48
2023/10/25 19:34:18;;;;;;;11.95;6.70;;;20.30;66.70;;;;;;5134532;27;20034;-49
2023/10/25 19:36:44;;;;;;;12.70;6.93;;;20.30;66.60;;;;;;5134462;27;20478;-46
2023/10/25 19:39:10;;;;;;;11.60;6.22;;;20.30;66.70;;;;;;5134642;27;20030;-47
2023/10/25 19:41:36;;;;;;;10.38;5.80;;;20.30;66.70;;;;;;5134020;27;20031;-46
2023/10/25 19:44:04;;;;;;;10.95;6.22;;;20.30;66.70;;;;;;5134291;27;20027;-47
2023/10/25 19:46:33;;;;;;;11.43;6.25;;;20.30;66.60;;;;;;5134340;27;20071;-50
2023/10/25 19:49:04;;;;;;;9.48;5.72;;;20.30;66.60;;;;;;5134201;27;20469;-46
2023/10/25 19:51:30;;;;;;;11.98;6.72;;;20.30;66.60;;;;;;5133758;27;20031;-47
2023/10/25 19:53:56;;;;;;;11.07;5.90;;;20.30;66.60;;;;;;5133163;27;20023;-51
2023/10/25 19:56:22;;;;;;;10.55;6.07;;;20.30;66.60;;;;;;5134074;27;20095;-48
2023/10/25 19:58:48;;;;;;;12.45;6.45;;;20.30;66.60;;;;;;5115770;27;20493;-46
2023/10/25 20:01:14;;;;;;;10.60;6.25;;;20.30;66.60;;;;;;5133671;27;20027;-48
2023/10/25 20:03:41;;;;;;;11.27;6.65;;;20.30;66.50;;;;;;5134035;27;20046;-48
2023/10/25 20:06:08;;;;;;;12.20;6.85;;;20.40;67.10;;;;;;5134086;27;20035;-47
2023/10/25 20:08:34;;;;;;;9.73;5.80;;;20.40;66.40;;;;;;5133844;27;20027;-51
2023/10/25 20:11:03;;;;;;;10.75;6.45;;;20.30;66.40;;;;;;5133538;27;20496;-48
2023/10/25 20:13:29;;;;;;;11.38;6.20;;;20.40;66.40;;;;;;5133789;27;20409;-47
2023/10/25 20:15:55;;;;;;;10.93;6.57;;;20.30;66.30;;;;;;5132649;27;20037;-46
2023/10/25 20:18:21;;;;;;;10.15;6.18;;;20.40;66.40;;;;;;5133620;27;20065;-54
2023/10/25 20:20:47;;;;;;;9.65;6.07;;;20.40;66.90;;;;;;5133237;27;20087;-51
2023/10/25 20:23:13;;;;;;;12.25;6.47;;;20.40;66.30;;;;;;5133417;27;20031;-51
2023/10/25 20:25:39;;;;;;;10.43;6.35;;;20.40;66.30;;;;;;5133522;27;20080;-48
2023/10/25 20:28:04;;;;;;;12.35;6.55;;;20.40;66.30;;;;;;5133430;27;20027;-46
2023/10/25 20:30:30;;;;;;;10.38;5.97;;;20.40;66.30;;;;;;5132943;27;20053;-47
2023/10/25 20:32:57;;;;;;;10.02;6.10;;;20.40;66.30;;;;;;5133221;27;20019;-49
2023/10/25 20:35:23;;;;;;;12.07;6.85;;;20.30;66.20;;;;;;5133317;27;20032;-46
2023/10/25 20:37:48;;;;;;;11.55;6.22;;;20.40;66.30;;;;;;5133471;27;20378;-49
2023/10/25 20:40:14;;;;;;;10.60;5.90;;;20.40;66.30;;;;;;5133072;27;20031;-48
2023/10/25 20:42:40;;;;;;;9.68;5.82;;;20.40;66.20;;;;;;5132804;27;20406;-48
2023/10/25 20:45:06;;;;;;;11.82;6.13;;;20.40;66.20;;;;;;5133215;27;20027;-53
2023/10/25 20:47:32;;;;;;;11.13;6.10;;;20.40;66.10;;;;;;5133029;27;20440;-47
2023/10/25 20:49:57;;;;;;;9.77;5.63;;;20.40;66.10;;;;;;5132998;27;20044;-46
2023/10/25 20:52:23;;;;;;;9.57;5.32;;;20.40;66.40;;;;;;5132649;27;20023;-48
2023/10/25 20:54:49;;;;;;;10.70;5.55;;;20.40;66.30;;;;;;5132980;27;20157;-47
2023/10/25 20:57:15;;;;;;;9.75;5.65;;;20.40;66.30;;;;;;5132926;27;20023;-50
2023/10/25 20:59:41;;;;;;;12.43;5.57;;;20.40;66.30;;;;;;5132905;27;20396;-48
2023/10/25 21:02:07;;;;;;;9.65;5.95;;;20.40;66.20;;;;;;5132437;27;20027;-47
2023/10/25 21:04:32;;;;;;;10.45;6.18;;;20.40;66.20;;;;;;5132879;27;20046;-46
2023/10/25 21:06:58;;;;;;;9.57;5.95;;;20.40;66.20;;;;;;5132786;27;20478;-49
2023/10/25 21:09:24;;;;;;;9.27;5.35;;;20.30;66.20;;;;;;5132664;27;20023;-48
2023/10/25 21:11:50;;;;;;;8.75;5.57;;;20.40;66.70;;;;;;5132169;27;20038;-47
2023/10/25 21:14:16;;;;;;;12.25;6.05;;;20.40;66.20;;;;;;5132678;27;20212;-46
2023/10/25 21:16:41;;;;;;;11.63;5.32;;;20.40;66.20;;;;;;5132664;27;20101;-47
2023/10/25 21:19:07;;;;;;;9.13;5.75;;;20.30;66.20;;;;;;5132613;27;20389;-46
2023/10/25 21:21:33;;;;;;;12.90;6.18;;;20.30;66.10;;;;;;5132489;27;20291;-49
2023/10/25 21:23:59;;;;;;;10.93;5.75;;;20.30;66.20;;;;;;5132508;27;20060;-45
2023/10/25 21:26:25;;;;;;;9.60;5.25;;;20.30;66.20;;;;;;5132326;27;20061;-48
2023/10/25 21:28:52;;;;;;;8.73;5.47;;;20.30;66.30;;;;;;5132541;28;20055;-46
2023/10/25 21:31:17;;;;;;;9.43;5.28;;;20.30;66.50;;;;;;5131349;28;20039;-46
2023/10/25 21:33:43;;;;;;;17.08;7.80;;;20.30;66.20;;;;;;5132125;28;20366;-48
2023/10/25 21:36:10;;;;;;;17.63;6.07;;;20.30;66.20;;;;;;5131551;28;20027;-52
2023/10/25 21:38:36;;;;;;;11.75;5.85;;;20.30;65.80;;;;;;5131478;28;20098;-51
2023/10/25 21:41:04;;;;;;;14.55;6.07;;;20.30;66.20;;;;;;5131151;28;20091;-51
2023/10/25 21:43:30;;;;;;;10.45;6.10;;;20.30;66.10;;;;;;5131854;27;20108;-47
2023/10/25 21:45:56;;;;;;;11.45;6.53;;;20.30;66.10;;;;;;5132461;28;20037;-48
2023/10/25 21:48:23;;;;;;;12.23;6.35;;;20.30;65.70;;;;;;5132299;28;20027;-49
2023/10/25 21:50:59;;;;;;;12.05;6.40;;;20.30;65.80;;;;;;5131960;27;20502;-48
2023/10/25 21:53:25;;;;;;;21.92;5.45;;;20.30;66.00;;;;;;5131931;28;20489;-48
2023/10/25 21:55:52;;;;;;;22.98;6.88;;;20.40;67.00;;;;;;5132131;28;20030;-46
2023/10/25 21:58:18;;;;;;;16.48;5.57;;;20.40;66.40;;;;;;5132200;28;20076;-47
2023/10/25 22:00:44;;;;;;;18.63;6.28;;;20.40;66.40;;;;;;5131866;28;20436;-47
2023/10/25 22:03:09;;;;;;;13.00;6.00;;;20.40;66.30;;;;;;5132288;28;20031;-46
2023/10/25 22:05:35;;;;;;;19.67;5.70;;;20.40;66.30;;;;;;5132251;28;20057;-47
2023/10/25 22:08:01;;;;;;;12.82;5.85;;;20.40;66.20;;;;;;5132241;28;20031;-46
2023/10/25 22:10:27;;;;;;;10.80;5.85;;;20.40;66.40;;;;;;5131619;28;20034;-50
2023/10/25 22:12:53;;;;;;;13.68;6.03;;;20.40;66.30;;;;;;5132031;28;20510;-47
2023/10/25 22:15:18;;;;;;;10.30;5.18;;;20.40;66.30;;;;;;5132065;28;20106;-46
2023/10/25 22:17:45;;;;;;;10.00;5.45;;;20.40;66.30;;;;;;5133084;27;20051;-46
2023/10/25 22:20:12;;;;;;;11.13;5.63;;;20.40;66.30;;;;;;5135862;27;20478;-48
2023/10/25 22:22:38;;;;;;;11.15;5.80;;;20.30;66.30;;;;;;5135556;27;20031;-46
2023/10/25 22:25:07;;;;;;;11.10;5.78;;;20.40;66.20;;;;;;5135515;27;20034;-48
2023/10/25 22:27:32;;;;;;;9.73;5.40;;;20.30;66.20;;;;;;5135571;27;20102;-46
2023/10/25 22:29:58;;;;;;;10.05;5.60;;;20.40;66.30;;;;;;5135718;27;20115;-47
2023/10/25 22:32:24;;;;;;;9.40;5.30;;;20.40;66.20;;;;;;5135254;27;20490;-44
2023/10/25 22:34:50;;;;;;;11.23;5.55;;;20.40;66.30;;;;;;5135692;27;20027;-48
2023/10/25 22:37:16;;;;;;;14.85;5.85;;;20.40;66.40;;;;;;5135298;27;20027;-51
2023/10/25 22:39:42;;;;;;;20.10;6.03;;;20.40;66.50;;;;;;5135468;27;20408;-50
2023/10/25 22:42:07;;;;;;;13.32;5.70;;;20.50;66.60;;;;;;5135094;27;20039;-47
2023/10/25 22:44:33;;;;;;;17.88;5.72;;;20.50;66.60;;;;;;5135452;27;20051;-48
2023/10/25 22:46:59;;;;;;;25.15;5.32;;;20.40;66.90;;;;;;5135576;27;20034;-46
2023/10/25 22:49:25;;;;;;;14.40;5.10;;;20.40;66.90;;;;;;5135432;27;20534;-46
2023/10/25 22:51:55;;;;;;;12.52;5.43;;;20.40;66.90;;;;;;5134939;27;20026;-49
2023/10/25 22:54:23;;;;;;;13.65;6.07;;;20.40;66.70;;;;;;5135117;27;20015;-48
2023/10/25 22:56:50;;;;;;;12.18;5.35;;;20.30;66.80;;;;;;5135171;27;20026;-48
2023/10/25 22:59:16;;;;;;;15.00;5.47;;;20.30;67.30;;;;;;5135364;27;20401;-48
2023/10/25 23:01:42;;;;;;;10.38;5.55;;;20.30;66.70;;;;;;5134791;27;20438;-46
2023/10/25 23:04:08;;;;;;;9.57;4.93;;;20.30;66.60;;;;;;5135125;27;20027;-46
2023/10/25 23:06:35;;;;;;;11.85;4.72;;;20.30;66.90;;;;;;5135070;27;20050;-47
2023/10/25 23:09:01;;;;;;;14.55;4.97;;;20.30;66.90;;;;;;5135062;27;20023;-47
2023/10/25 23:11:27;;;;;;;15.07;5.22;;;20.30;67.30;;;;;;5134570;27;20478;-48
2023/10/25 23:13:53;;;;;;;10.50;5.70;;;20.30;66.70;;;;;;5134948;27;20027;-47
2023/10/25 23:16:19;;;;;;;11.18;5.20;;;20.30;66.70;;;;;;5134882;27;20047;-50
2023/10/25 23:18:49;;;;;;;11.77;5.20;;;20.30;66.60;;;;;;5134825;27;20487;-46
2023/10/25 23:21:16;;;;;;;11.18;4.90;;;20.30;66.80;;;;;;5134440;27;20447;-47
2023/10/25 23:23:41;;;;;;;9.75;4.60;;;20.30;66.90;;;;;;5134621;27;20038;-47